createdAt,value
2022-12-23T00:00:57.709Z,8.63
2022-12-23T00:03:26.380Z,7.63
2022-12-23T00:05:54.136Z,8.57
2022-12-23T00:08:22.923Z,8.33
2022-12-23T00:10:51.713Z,7.70
2022-12-23T00:13:37.919Z,7.97
2022-12-23T00:16:13.964Z,7.33
2022-12-23T00:18:42.437Z,7.87
2022-12-23T00:21:13.167Z,7.23
2022-12-23T00:23:42.701Z,7.87
2022-12-23T00:26:19.187Z,8.10
2022-12-23T00:28:46.672Z,9.03
2022-12-23T00:31:15.061Z,8.83
2022-12-23T00:33:47.437Z,8.00
2022-12-23T00:36:19.889Z,8.77
2022-12-23T00:39:06.358Z,9.07
2022-12-23T00:41:52.973Z,9.10
2022-12-23T00:44:20.525Z,9.07
2022-12-23T00:46:48.142Z,8.80
2022-12-23T00:49:36.105Z,8.80
2022-12-23T00:52:04.822Z,8.20
2022-12-23T00:54:32.289Z,7.97
2022-12-23T00:57:00.416Z,6.57
2022-12-23T00:59:28.265Z,7.23
2022-12-23T01:02:14.221Z,7.57
2022-12-23T01:05:00.249Z,6.90
2022-12-23T01:07:27.698Z,6.83
2022-12-23T01:09:54.985Z,6.40
2022-12-23T01:12:22.599Z,6.40
2022-12-23T01:14:50.321Z,5.87
2022-12-23T01:17:17.654Z,6.27
2022-12-23T01:19:44.956Z,6.03
2022-12-23T01:22:12.233Z,6.10
2022-12-23T01:24:39.550Z,6.67
2022-12-23T01:27:07.164Z,6.67
2022-12-23T01:29:34.544Z,6.20
2022-12-23T01:32:03.568Z,5.90
2022-12-23T01:34:36.462Z,6.10
2022-12-23T01:37:05.036Z,7.00
2022-12-23T01:39:32.681Z,5.77
2022-12-23T01:42:18.567Z,6.10
2022-12-23T01:44:50.346Z,5.83
2022-12-23T01:47:23.931Z,5.83
2022-12-23T01:49:57.421Z,6.53
2022-12-23T01:52:25.424Z,6.80
2022-12-23T01:54:53.530Z,6.70
2022-12-23T01:57:21.605Z,7.10
2022-12-23T02:00:08.243Z,6.23
2022-12-23T02:02:57.109Z,6.40
2022-12-23T02:05:24.853Z,6.73
2022-12-23T02:08:11.873Z,5.87
2022-12-23T02:10:59.145Z,5.93
2022-12-23T02:14:02.898Z,6.40
2022-12-23T02:16:37.478Z,6.07
2022-12-23T02:19:16.223Z,6.10
2022-12-23T02:21:49.072Z,5.83
2022-12-23T02:24:51.595Z,5.60
2022-12-23T02:27:37.836Z,6.20
2022-12-23T02:30:23.719Z,6.10
2022-12-23T02:33:14.633Z,6.10
2022-12-23T02:36:24.137Z,6.50
2022-12-23T02:39:05.764Z,6.27
2022-12-23T02:41:43.399Z,6.47
2022-12-23T02:44:34.891Z,5.70
2022-12-23T02:47:18.769Z,6.87
2022-12-23T02:49:51.335Z,7.40
2022-12-23T02:52:23.668Z,7.03
2022-12-23T02:54:56.288Z,7.60
2022-12-23T02:57:32.702Z,7.03
2022-12-23T03:00:01.894Z,6.90
2022-12-23T03:02:34.041Z,6.63
2022-12-23T03:05:01.743Z,7.73
2022-12-23T03:07:34.977Z,6.87
2022-12-23T03:10:30.079Z,6.27
2022-12-23T03:13:12.833Z,7.60
2022-12-23T03:15:47.194Z,6.80
2022-12-23T03:18:20.358Z,7.47
2022-12-23T03:21:13.059Z,7.00
2022-12-23T03:23:56.233Z,7.73
2022-12-23T03:26:34.402Z,7.37
2022-12-23T03:29:05.951Z,7.83
2022-12-23T03:31:34.684Z,7.83
2022-12-23T03:34:10.225Z,7.30
2022-12-23T03:36:52.234Z,7.33
2022-12-23T03:39:22.613Z,7.50
2022-12-23T03:42:05.928Z,7.30
2022-12-23T03:44:37.557Z,7.20
2022-12-23T03:47:13.473Z,6.37
2022-12-23T03:49:55.295Z,7.40
2022-12-23T03:52:32.828Z,7.60
2022-12-23T03:55:04.689Z,7.00
2022-12-23T03:57:40.371Z,6.93
2022-12-23T04:00:08.388Z,7.43
2022-12-23T04:02:59.676Z,6.90
2022-12-23T04:05:53.229Z,6.77
2022-12-23T04:08:31.840Z,6.73
2022-12-23T04:11:01.901Z,6.87
2022-12-23T04:13:30.139Z,6.67
2022-12-23T04:16:01.847Z,7.43
2022-12-23T04:18:29.419Z,7.23
2022-12-23T04:20:57.044Z,8.20
2022-12-23T04:23:24.572Z,8.93
2022-12-23T04:25:51.992Z,10.73
2022-12-23T04:28:20.212Z,10.87
2022-12-23T04:30:47.619Z,11.30
2022-12-23T04:33:15.270Z,11.70
2022-12-23T04:35:42.608Z,11.20
2022-12-23T04:38:10.033Z,16.77
2022-12-23T04:40:37.648Z,14.80
2022-12-23T04:43:05.157Z,18.17
2022-12-23T04:45:33.443Z,15.50
2022-12-23T04:48:00.870Z,18.07
2022-12-23T04:50:28.303Z,20.77
2022-12-23T04:52:55.731Z,15.90
2022-12-23T04:55:23.305Z,15.30
2022-12-23T04:57:50.734Z,16.87
2022-12-23T05:00:18.550Z,16.10
2022-12-23T05:02:46.248Z,14.47
2022-12-23T05:05:13.644Z,14.23
2022-12-23T05:07:41.286Z,15.83
2022-12-23T05:10:09.325Z,13.33
2022-12-23T05:12:36.951Z,11.47
2022-12-23T05:15:04.693Z,12.30
2022-12-23T05:17:31.992Z,12.27
2022-12-23T05:19:59.394Z,12.03
2022-12-23T05:22:26.835Z,11.97
2022-12-23T05:24:54.188Z,16.13
2022-12-23T05:27:21.848Z,15.33
2022-12-23T05:29:49.180Z,13.20
2022-12-23T05:32:16.626Z,10.17
2022-12-23T05:34:43.894Z,11.50
2022-12-23T05:37:11.231Z,10.87
2022-12-23T05:39:38.608Z,11.07
2022-12-23T05:42:06.521Z,10.23
2022-12-23T05:44:34.005Z,11.83
2022-12-23T05:47:01.515Z,12.63
2022-12-23T05:49:28.761Z,11.20
2022-12-23T05:51:56.025Z,12.23
2022-12-23T05:54:23.433Z,14.87
2022-12-23T05:56:50.942Z,14.13
2022-12-23T05:59:19.373Z,16.03
2022-12-23T06:01:46.940Z,17.07
2022-12-23T06:04:14.477Z,17.77
2022-12-23T06:06:41.940Z,17.17
2022-12-23T06:09:10.024Z,17.47
2022-12-23T06:11:37.697Z,20.13
2022-12-23T06:14:07.316Z,19.83
2022-12-23T06:16:34.797Z,18.53
2022-12-23T06:19:03.368Z,23.53
2022-12-23T06:21:31.055Z,20.53
2022-12-23T06:23:58.779Z,18.73
2022-12-23T06:26:26.435Z,42.33
2022-12-23T06:28:53.878Z,23.33
2022-12-23T06:31:21.258Z,17.93
2022-12-23T06:33:48.745Z,19.77
2022-12-23T06:36:15.984Z,19.17
2022-12-23T06:38:43.435Z,19.03
2022-12-23T06:41:11.151Z,21.70
2022-12-23T06:43:38.799Z,21.63
2022-12-23T06:46:06.255Z,21.20
2022-12-23T06:48:34.191Z,18.57
2022-12-23T06:51:01.624Z,21.40
2022-12-23T06:53:29.016Z,21.00
2022-12-23T06:56:04.096Z,21.93
2022-12-23T06:58:31.780Z,21.23
2022-12-23T07:00:59.372Z,33.53
2022-12-23T07:03:26.956Z,25.20
2022-12-23T07:05:54.452Z,20.03
2022-12-23T07:08:21.896Z,19.93
2022-12-23T07:10:49.522Z,22.33
2022-12-23T07:13:17.000Z,21.07
2022-12-23T07:15:44.269Z,19.97
2022-12-23T07:18:11.687Z,18.83
2022-12-23T07:20:39.069Z,17.40
2022-12-23T07:23:06.538Z,16.70
2022-12-23T07:25:34.011Z,16.63
2022-12-23T07:28:01.289Z,16.57
2022-12-23T07:30:29.145Z,16.60
2022-12-23T07:32:56.687Z,16.60
2022-12-23T07:35:24.457Z,16.37
2022-12-23T07:37:53.687Z,15.87
2022-12-23T07:40:24.314Z,16.13
2022-12-23T07:42:56.810Z,16.97
2022-12-23T07:45:25.248Z,17.77
2022-12-23T07:47:57.057Z,16.80
2022-12-23T07:50:25.775Z,19.23
2022-12-23T07:52:54.155Z,16.10
2022-12-23T07:55:21.879Z,20.03
2022-12-23T07:57:53.039Z,16.53
2022-12-23T08:00:21.183Z,16.10
2022-12-23T08:02:50.030Z,18.90
2022-12-23T08:05:18.800Z,17.47
2022-12-23T08:07:49.342Z,16.50
2022-12-23T08:10:17.210Z,16.67
2022-12-23T08:12:46.786Z,17.57
2022-12-23T08:15:14.190Z,18.80
2022-12-23T08:17:41.521Z,19.07
2022-12-23T08:20:09.353Z,18.77
2022-12-23T08:22:36.665Z,20.50
2022-12-23T08:25:04.903Z,20.93
2022-12-23T08:27:32.301Z,27.30
2022-12-23T08:29:59.537Z,20.43
2022-12-23T08:32:27.927Z,20.73
2022-12-23T08:34:57.522Z,21.37
2022-12-23T08:37:25.512Z,19.03
2022-12-23T08:39:52.963Z,18.33
2022-12-23T08:42:20.399Z,19.27
2022-12-23T08:44:47.875Z,19.07
2022-12-23T08:47:15.155Z,18.13
2022-12-23T08:49:42.462Z,17.63
2022-12-23T08:52:09.920Z,17.73
2022-12-23T08:54:37.326Z,18.40
2022-12-23T08:57:04.590Z,16.27
2022-12-23T08:59:31.999Z,18.10
2022-12-23T09:02:02.233Z,21.70
2022-12-23T09:04:30.857Z,17.43
2022-12-23T09:06:58.332Z,18.13
2022-12-23T09:09:25.828Z,19.97
2022-12-23T09:11:53.423Z,18.83
2022-12-23T09:14:21.113Z,32.80
2022-12-23T09:16:52.714Z,25.37
2022-12-23T09:19:20.511Z,26.47
2022-12-23T09:21:48.910Z,26.03
2022-12-23T09:24:16.264Z,21.73
2022-12-23T09:26:43.660Z,22.90
2022-12-23T09:29:11.215Z,18.73
2022-12-23T09:31:39.134Z,20.40
2022-12-23T09:34:06.798Z,20.10
2022-12-23T09:36:34.357Z,20.30
2022-12-23T09:39:01.955Z,20.63
2022-12-23T09:41:45.007Z,19.43
2022-12-23T09:44:30.680Z,18.87
2022-12-23T09:47:02.273Z,20.20
2022-12-23T09:49:30.234Z,19.13
2022-12-23T09:52:01.655Z,21.03
2022-12-23T09:54:48.743Z,18.97
2022-12-23T09:57:45.656Z,20.33
2022-12-23T10:00:19.633Z,20.50
2022-12-23T10:03:18.824Z,20.43
2022-12-23T10:06:13.195Z,19.00
2022-12-23T10:08:45.413Z,19.20
2022-12-23T10:11:18.191Z,19.30
2022-12-23T10:13:51.685Z,29.70
2022-12-23T10:16:32.629Z,26.30
2022-12-23T10:19:01.763Z,21.70
2022-12-23T10:21:47.559Z,21.47
2022-12-23T10:24:30.161Z,23.97
2022-12-23T10:27:18.276Z,18.80
2022-12-23T10:29:45.698Z,18.97
2022-12-23T10:32:36.152Z,20.30
2022-12-23T10:35:39.858Z,19.70
2022-12-23T10:38:16.390Z,18.27
2022-12-23T10:41:05.388Z,21.30
2022-12-23T10:43:39.435Z,17.90
2022-12-23T10:46:42.765Z,22.93
2022-12-23T10:49:28.648Z,23.40
2022-12-23T10:52:02.188Z,20.77
2022-12-23T10:54:34.909Z,20.10
2022-12-23T10:57:04.492Z,19.43
2022-12-23T10:59:33.957Z,19.83
2022-12-23T11:02:13.711Z,20.37
2022-12-23T11:04:47.451Z,20.97
2022-12-23T11:07:45.122Z,19.83
2022-12-23T11:10:23.520Z,20.90
2022-12-23T11:12:53.912Z,22.80
2022-12-23T11:15:33.720Z,19.97
2022-12-23T11:18:04.365Z,20.67
2022-12-23T11:20:33.076Z,19.60
2022-12-23T11:23:02.605Z,18.83
2022-12-23T11:25:44.059Z,20.57
2022-12-23T11:28:11.369Z,22.50
2022-12-23T11:30:55.809Z,19.47
2022-12-23T11:33:36.270Z,18.13
2022-12-23T11:36:07.622Z,19.00
2022-12-23T11:38:37.821Z,18.47
2022-12-23T11:41:06.069Z,19.67
2022-12-23T11:43:34.187Z,18.73
2022-12-23T11:46:25.812Z,19.17
2022-12-23T11:49:15.697Z,19.37
2022-12-23T11:51:45.216Z,17.70
2022-12-23T11:54:20.923Z,18.70
2022-12-23T11:56:51.835Z,18.13
2022-12-23T11:59:28.725Z,18.40
2022-12-23T12:02:02.826Z,16.40
2022-12-23T12:04:34.036Z,18.00
2022-12-23T12:07:03.610Z,17.50
2022-12-23T12:09:32.326Z,17.57
2022-12-23T12:12:15.270Z,19.30
2022-12-23T12:14:52.055Z,18.70
2022-12-23T12:17:41.055Z,21.43
2022-12-23T12:20:27.991Z,18.03
2022-12-23T12:23:09.127Z,20.13
2022-12-23T12:25:44.222Z,19.13
2022-12-23T12:28:23.457Z,18.57
2022-12-23T12:31:01.470Z,19.33
2022-12-23T12:34:07.289Z,20.47
2022-12-23T12:36:53.383Z,23.70
2022-12-23T12:39:36.171Z,21.03
2022-12-23T12:42:17.155Z,21.10
2022-12-23T12:45:10.317Z,20.93
2022-12-23T12:48:18.722Z,20.03
2022-12-23T12:51:11.953Z,21.40
2022-12-23T12:54:08.960Z,21.10
2022-12-23T12:56:55.260Z,22.17
2022-12-23T12:59:29.148Z,23.00
2022-12-23T13:02:30.180Z,24.00
2022-12-23T13:04:57.441Z,22.20
2022-12-23T13:08:09.595Z,22.10
2022-12-23T13:10:44.726Z,22.07
2022-12-23T13:13:18.110Z,22.37
2022-12-23T13:15:58.399Z,23.33
2022-12-23T13:18:52.129Z,23.23
2022-12-23T13:21:25.792Z,23.63
2022-12-23T13:24:22.029Z,24.07
2022-12-23T13:27:41.639Z,25.93
2022-12-23T13:30:21.690Z,25.23
2022-12-23T13:33:10.644Z,25.10
2022-12-23T13:36:06.286Z,23.90
2022-12-23T13:38:46.692Z,23.57
2022-12-23T13:41:22.955Z,22.90
2022-12-23T13:44:20.678Z,21.37
2022-12-23T13:47:02.726Z,21.67
2022-12-23T13:50:05.637Z,22.13
2022-12-23T13:52:36.111Z,22.30
2022-12-23T13:55:28.390Z,26.07
2022-12-23T13:58:20.509Z,24.60
2022-12-23T14:01:02.912Z,24.60
2022-12-23T14:03:34.744Z,22.53
2022-12-23T14:06:41.270Z,21.67
2022-12-23T14:09:14.637Z,21.90
2022-12-23T14:11:45.128Z,22.13
2022-12-23T14:14:22.479Z,22.10
2022-12-23T14:17:02.681Z,22.90
2022-12-23T14:19:35.811Z,21.13
2022-12-23T14:22:37.647Z,20.60
2022-12-23T14:25:27.477Z,21.20
2022-12-23T14:28:13.258Z,21.20
2022-12-23T14:30:45.696Z,21.13
2022-12-23T14:33:16.307Z,21.37
2022-12-23T14:35:43.734Z,21.03
2022-12-23T14:38:13.927Z,20.00
2022-12-23T14:40:50.502Z,19.23
2022-12-23T14:43:47.056Z,19.53
2022-12-23T14:46:36.376Z,19.40
2022-12-23T14:52:39.305Z,19.37
2022-12-23T14:55:32.369Z,19.77
2022-12-23T14:58:08.188Z,20.13
2022-12-23T15:01:02.342Z,19.80
2022-12-23T15:03:40.181Z,19.73
2022-12-23T15:06:08.061Z,19.73
2022-12-23T15:08:42.025Z,19.83
2022-12-23T15:11:29.108Z,19.27
2022-12-23T15:13:59.735Z,20.13
2022-12-23T15:16:31.872Z,18.43
2022-12-23T15:19:02.656Z,19.63
2022-12-23T15:21:32.984Z,19.93
2022-12-23T15:24:00.795Z,19.80
2022-12-23T15:26:31.679Z,19.63
2022-12-23T15:29:00.901Z,18.70
2022-12-23T15:31:33.128Z,19.70
2022-12-23T15:34:13.067Z,19.10
2022-12-23T15:36:46.142Z,19.23
2022-12-23T15:39:32.417Z,18.13
2022-12-23T15:42:00.329Z,20.80
2022-12-23T15:44:36.715Z,15.93
2022-12-23T15:47:22.380Z,15.57
2022-12-23T15:49:50.335Z,16.63
2022-12-23T15:52:20.635Z,15.87
2022-12-23T15:55:33.422Z,16.20
2022-12-23T15:58:02.400Z,14.80
2022-12-23T16:00:36.039Z,16.57
2022-12-23T16:03:08.914Z,14.40
2022-12-23T16:05:38.936Z,15.83
2022-12-23T16:08:21.726Z,16.00
2022-12-23T16:11:17.676Z,17.40
2022-12-23T16:14:20.240Z,17.50
2022-12-23T16:16:48.222Z,28.77
2022-12-23T16:19:42.469Z,19.97
2022-12-23T16:22:36.343Z,19.80
2022-12-23T16:25:11.934Z,19.37
2022-12-23T16:28:03.611Z,17.07
2022-12-23T16:30:39.459Z,18.83
2022-12-23T16:33:23.628Z,17.03
2022-12-23T16:35:51.112Z,17.93
2022-12-23T16:38:26.897Z,24.87
2022-12-23T16:40:56.807Z,18.13
2022-12-23T16:43:24.945Z,17.43
2022-12-23T16:45:57.111Z,15.30
2022-12-23T16:48:41.928Z,14.53
2022-12-23T16:51:13.720Z,15.37
2022-12-23T16:53:41.996Z,15.83
2022-12-23T16:56:13.328Z,15.60
2022-12-23T16:58:41.503Z,15.17
2022-12-23T17:01:18.125Z,15.43
2022-12-23T17:03:45.922Z,20.97
2022-12-23T17:06:14.560Z,18.23
2022-12-23T17:08:43.872Z,18.53
2022-12-23T17:11:23.173Z,17.97
2022-12-23T17:13:50.511Z,17.97
2022-12-23T17:16:22.218Z,17.47
2022-12-23T17:18:51.407Z,16.40
2022-12-23T17:21:26.488Z,16.03
2022-12-23T17:23:57.087Z,17.80
2022-12-23T17:26:24.704Z,17.03
2022-12-23T17:28:52.305Z,16.73
2022-12-23T17:31:26.743Z,16.73
2022-12-23T17:33:54.797Z,17.40
2022-12-23T17:36:22.491Z,17.17
2022-12-23T17:38:50.042Z,16.57
2022-12-23T17:41:27.028Z,15.97
2022-12-23T17:43:54.934Z,16.97
2022-12-23T17:46:22.445Z,18.03
2022-12-23T17:48:49.943Z,17.27
2022-12-23T17:51:19.649Z,17.13
2022-12-23T17:53:51.573Z,18.20
2022-12-23T17:56:23.402Z,16.70
2022-12-23T17:58:51.563Z,22.93
2022-12-23T18:01:27.605Z,17.77
2022-12-23T18:03:58.928Z,16.50
2022-12-23T18:06:28.761Z,16.67
2022-12-23T18:08:59.517Z,17.33
2022-12-23T18:11:37.300Z,17.87
2022-12-23T18:14:04.763Z,19.37
2022-12-23T18:16:32.232Z,17.23
2022-12-23T18:18:59.582Z,17.00
2022-12-23T18:21:28.656Z,17.03
2022-12-23T18:23:58.499Z,16.97
2022-12-23T18:26:26.227Z,17.27
2022-12-23T18:28:54.619Z,17.10
2022-12-23T18:31:24.686Z,17.63
2022-12-23T18:33:52.925Z,16.67
2022-12-23T18:36:30.370Z,17.80
2022-12-23T18:38:57.789Z,18.00
2022-12-23T18:41:27.652Z,17.63
2022-12-23T18:43:56.546Z,18.57
2022-12-23T18:46:23.975Z,17.93
2022-12-23T18:48:51.725Z,17.10
2022-12-23T18:51:21.283Z,18.20
2022-12-23T18:53:49.219Z,17.83
2022-12-23T18:56:20.087Z,18.30
2022-12-23T18:58:48.700Z,17.47
2022-12-23T19:01:19.986Z,18.00
2022-12-23T19:03:47.977Z,18.30
2022-12-23T19:06:16.255Z,17.73
2022-12-23T19:08:45.170Z,21.80
2022-12-23T19:11:18.796Z,20.50
2022-12-23T19:13:47.421Z,19.80
2022-12-23T19:16:17.389Z,20.03
2022-12-23T19:18:45.787Z,19.67
2022-12-23T19:21:14.077Z,19.93
2022-12-23T19:23:42.255Z,20.87
2022-12-23T19:26:11.121Z,19.53
2022-12-23T19:28:41.264Z,19.93
2022-12-23T19:31:14.373Z,24.00
2022-12-23T19:33:44.779Z,24.70
2022-12-23T19:36:25.491Z,24.33
2022-12-23T19:38:53.483Z,20.70
2022-12-23T19:41:21.579Z,19.97
2022-12-23T19:43:50.384Z,17.10
2022-12-23T19:46:18.268Z,17.70
2022-12-23T19:48:51.915Z,18.30
2022-12-23T19:51:20.240Z,18.43
2022-12-23T19:53:51.376Z,20.43
2022-12-23T19:56:23.845Z,18.67
2022-12-23T19:58:51.395Z,18.03
2022-12-23T20:01:21.578Z,19.50
2022-12-23T20:03:51.165Z,18.47
2022-12-23T20:06:23.670Z,21.00
2022-12-23T20:08:56.303Z,21.73
2022-12-23T20:11:30.875Z,22.50
2022-12-23T20:14:00.829Z,21.17
2022-12-23T20:16:30.074Z,21.60
2022-12-23T20:18:58.940Z,21.67
2022-12-23T20:21:26.630Z,20.60
2022-12-23T20:23:57.205Z,21.67
2022-12-23T20:26:27.518Z,21.63
2022-12-23T20:28:56.389Z,20.70
2022-12-23T20:31:26.561Z,21.93
2022-12-23T20:33:54.740Z,21.60
2022-12-23T20:36:30.729Z,20.97
2022-12-23T20:38:58.900Z,21.47
2022-12-23T20:41:28.335Z,21.70
2022-12-23T20:44:32.610Z,19.50
2022-12-23T20:46:43.696Z,21.20
2022-12-23T20:49:11.005Z,21.83
2022-12-23T20:51:38.747Z,23.60
2022-12-23T20:54:06.052Z,23.87
2022-12-23T20:56:33.488Z,23.87
2022-12-23T20:59:02.868Z,24.60
2022-12-23T21:01:36.702Z,23.57
2022-12-23T21:04:14.194Z,24.77
2022-12-23T21:06:42.348Z,22.17
2022-12-23T21:09:12.378Z,21.97
2022-12-23T21:11:43.129Z,20.43
2022-12-23T21:14:11.368Z,21.10
2022-12-23T21:16:40.247Z,23.13
2022-12-23T21:19:13.425Z,20.83
2022-12-23T21:21:41.162Z,18.97
2022-12-23T21:24:10.543Z,19.90
2022-12-23T21:26:38.185Z,20.40
2022-12-23T21:29:07.778Z,19.83
2022-12-23T21:31:38.359Z,19.07
2022-12-23T21:34:06.593Z,19.33
2022-12-23T21:36:37.649Z,18.63
2022-12-23T21:39:07.387Z,20.53
2022-12-23T21:41:37.249Z,18.53
2022-12-23T21:44:05.863Z,19.70
2022-12-23T21:46:33.713Z,17.57
2022-12-23T21:49:01.544Z,17.77
2022-12-23T21:51:38.946Z,18.70
2022-12-23T21:54:08.057Z,18.90
2022-12-23T21:56:35.827Z,20.53
2022-12-23T21:59:10.287Z,19.73
2022-12-23T22:01:37.904Z,19.93
2022-12-23T22:04:05.727Z,20.13
2022-12-23T22:06:38.592Z,21.50
2022-12-23T22:09:07.855Z,19.43
2022-12-23T22:11:37.178Z,19.93
2022-12-23T22:14:07.129Z,18.50
2022-12-23T22:16:35.866Z,19.63
2022-12-23T22:19:04.439Z,18.97
2022-12-23T22:21:33.155Z,18.83
2022-12-23T22:24:01.110Z,18.57
2022-12-23T22:26:31.082Z,18.17
2022-12-23T22:29:00.830Z,18.73
2022-12-23T22:31:46.793Z,19.23
2022-12-23T22:34:20.039Z,19.03
2022-12-23T22:36:48.207Z,19.17
2022-12-23T22:39:21.137Z,18.63
2022-12-23T22:41:52.366Z,17.53
2022-12-23T22:44:20.605Z,17.53
2022-12-23T22:46:48.276Z,17.87
2022-12-23T22:49:15.935Z,17.83
2022-12-23T22:51:44.077Z,17.60
2022-12-23T22:54:11.394Z,18.53
2022-12-23T22:56:38.717Z,19.07
2022-12-23T22:59:06.120Z,18.73
2022-12-23T23:01:35.607Z,20.10
2022-12-23T23:04:04.123Z,19.10
2022-12-23T23:06:35.197Z,19.80
2022-12-23T23:09:02.533Z,20.73
2022-12-23T23:11:30.303Z,20.70
2022-12-23T23:13:57.813Z,20.63
2022-12-23T23:16:25.840Z,20.80
2022-12-23T23:18:54.391Z,22.30
2022-12-23T23:21:22.474Z,22.27
2022-12-23T23:23:50.105Z,23.03
2022-12-23T23:26:18.569Z,21.77
2022-12-23T23:28:46.648Z,22.17
2022-12-23T23:31:41.210Z,21.73
2022-12-23T23:34:01.891Z,21.37
2022-12-23T23:36:29.392Z,21.83
2022-12-23T23:38:56.980Z,22.83
2022-12-23T23:41:24.503Z,21.20
2022-12-23T23:43:52.348Z,22.17
2022-12-23T23:46:20.105Z,21.10
2022-12-23T23:48:47.806Z,21.57
2022-12-23T23:51:15.270Z,21.03
2022-12-23T23:53:42.633Z,20.40
2022-12-23T23:56:10.236Z,19.97
2022-12-23T23:58:38.047Z,20.13
